sensor_id;sensor_type;location;lat;lon;timestamp;pressure;altitude;pressure_sealevel;temperature;humidity
64602;BME280;68371;42.630;23.192;2023-03-14T00:00:59;92448.84;;;0.44;74.27
64602;BME280;68371;42.630;23.192;2023-03-14T00:03:28;92428.31;;;0.29;74.93
64602;BME280;68371;42.630;23.192;2023-03-14T00:05:55;92461.47;;;0.51;74.43
64602;BME280;68371;42.630;23.192;2023-03-14T00:08:23;92453.72;;;0.51;74.27
64602;BME280;68371;42.630;23.192;2023-03-14T00:10:51;92452.63;;;0.57;75.20
64602;BME280;68371;42.630;23.192;2023-03-14T00:13:18;92442.84;;;0.54;75.08
64602;BME280;68371;42.630;23.192;2023-03-14T00:15:44;92439.50;;;0.48;74.12
64602;BME280;68371;42.630;23.192;2023-03-14T00:18:11;92436.47;;;0.41;74.73
64602;BME280;68371;42.630;23.192;2023-03-14T00:20:38;92437.28;;;0.36;74.99
64602;BME280;68371;42.630;23.192;2023-03-14T00:23:04;92428.75;;;0.36;74.47
64602;BME280;68371;42.630;23.192;2023-03-14T00:25:31;92433.16;;;0.35;74.77
64602;BME280;68371;42.630;23.192;2023-03-14T00:27:59;92408.66;;;0.28;74.82
64602;BME280;68371;42.630;23.192;2023-03-14T00:30:28;92418.47;;;0.31;75.04
64602;BME280;68371;42.630;23.192;2023-03-14T00:32:55;92426.94;;;0.36;74.88
64602;BME280;68371;42.630;23.192;2023-03-14T00:35:21;92422.06;;;0.35;75.21
64602;BME280;68371;42.630;23.192;2023-03-14T00:37:48;92416.38;;;0.33;75.48
64602;BME280;68371;42.630;23.192;2023-03-14T00:40:15;92413.34;;;0.26;76.05
64602;BME280;68371;42.630;23.192;2023-03-14T00:42:42;92414.91;;;0.22;75.96
64602;BME280;68371;42.630;23.192;2023-03-14T00:45:10;92378.16;;;-0.05;75.80
64602;BME280;68371;42.630;23.192;2023-03-14T00:47:37;92399.56;;;0.01;75.64
64602;BME280;68371;42.630;23.192;2023-03-14T00:50:04;92416.03;;;0.10;76.19
64602;BME280;68371;42.630;23.192;2023-03-14T00:52:31;92413.97;;;0.12;76.49
64602;BME280;68371;42.630;23.192;2023-03-14T00:54:58;92416.56;;;0.12;76.29
64602;BME280;68371;42.630;23.192;2023-03-14T00:57:25;92412.66;;;0.10;75.89
64602;BME280;68371;42.630;23.192;2023-03-14T00:59:53;92373.06;;;-0.10;75.51
64602;BME280;68371;42.630;23.192;2023-03-14T01:02:21;92400.25;;;0.12;76.39
64602;BME280;68371;42.630;23.192;2023-03-14T01:04:48;92395.91;;;0.07;76.48
64602;BME280;68371;42.630;23.192;2023-03-14T01:07:15;92392.81;;;0.05;75.90
64602;BME280;68371;42.630;23.192;2023-03-14T01:09:42;92388.97;;;0.03;75.90
64602;BME280;68371;42.630;23.192;2023-03-14T01:12:09;92372.50;;;-0.07;76.41
64602;BME280;68371;42.630;23.192;2023-03-14T01:14:35;92390.06;;;-0.04;76.36
64602;BME280;68371;42.630;23.192;2023-03-14T01:17:02;92395.97;;;-0.03;76.43
64602;BME280;68371;42.630;23.192;2023-03-14T01:19:30;92390.06;;;-0.09;76.70
64602;BME280;68371;42.630;23.192;2023-03-14T01:21:58;92378.22;;;-0.15;76.61
64602;BME280;68371;42.630;23.192;2023-03-14T01:24:25;92394.50;;;-0.14;76.76
64602;BME280;68371;42.630;23.192;2023-03-14T01:26:54;92380.00;;;-0.10;76.99
64602;BME280;68371;42.630;23.192;2023-03-14T01:29:21;92377.41;;;-0.10;77.09
64602;BME280;68371;42.630;23.192;2023-03-14T01:31:47;92353.06;;;-0.33;76.74
64602;BME280;68371;42.630;23.192;2023-03-14T01:34:14;92369.72;;;-0.15;77.22
64602;BME280;68371;42.630;23.192;2023-03-14T01:36:42;92363.78;;;-0.16;77.54
64602;BME280;68371;42.630;23.192;2023-03-14T01:39:09;92312.91;;;-0.50;77.25
64602;BME280;68371;42.630;23.192;2023-03-14T01:41:36;92308.56;;;-0.54;77.20
64602;BME280;68371;42.630;23.192;2023-03-14T01:44:02;92362.28;;;-0.22;76.97
64602;BME280;68371;42.630;23.192;2023-03-14T01:46:33;92355.84;;;-0.25;77.07
64602;BME280;68371;42.630;23.192;2023-03-14T01:49:07;92357.34;;;-0.18;77.78
64602;BME280;68371;42.630;23.192;2023-03-14T01:51:42;92295.16;;;-0.62;77.42
64602;BME280;68371;42.630;23.192;2023-03-14T01:54:15;92325.03;;;-0.50;77.79
64602;BME280;68371;42.630;23.192;2023-03-14T01:56:46;92356.72;;;-0.39;78.29
64602;BME280;68371;42.630;23.192;2023-03-14T01:59:14;92190.00;;;-1.54;78.09
64602;BME280;68371;42.630;23.192;2023-03-14T02:01:43;92324.13;;;-0.70;78.38
64602;BME280;68371;42.630;23.192;2023-03-14T02:04:11;92347.47;;;-0.51;78.70
64602;BME280;68371;42.630;23.192;2023-03-14T02:06:47;92346.16;;;-0.43;78.82
64602;BME280;68371;42.630;23.192;2023-03-14T02:09:15;92311.72;;;-0.68;77.67
64602;BME280;68371;42.630;23.192;2023-03-14T02:11:43;92343.31;;;-0.47;78.23
64602;BME280;68371;42.630;23.192;2023-03-14T02:14:17;92335.06;;;-0.49;78.62
64602;BME280;68371;42.630;23.192;2023-03-14T02:16:47;92335.59;;;-0.47;78.60
64602;BME280;68371;42.630;23.192;2023-03-14T02:19:17;92338.72;;;-0.50;78.70
64602;BME280;68371;42.630;23.192;2023-03-14T02:21:53;92322.22;;;-0.54;79.05
64602;BME280;68371;42.630;23.192;2023-03-14T02:24:31;92327.19;;;-0.63;79.43
64602;BME280;68371;42.630;23.192;2023-03-14T02:27:07;92335.38;;;-0.55;79.73
64602;BME280;68371;42.630;23.192;2023-03-14T02:29:36;92326.38;;;-0.58;79.15
64602;BME280;68371;42.630;23.192;2023-03-14T02:32:06;92330.72;;;-0.53;78.90
64602;BME280;68371;42.630;23.192;2023-03-14T02:34:33;92341.59;;;-0.56;78.51
64602;BME280;68371;42.630;23.192;2023-03-14T02:37:00;92315.13;;;-0.72;78.48
64602;BME280;68371;42.630;23.192;2023-03-14T02:39:35;92344.19;;;-0.56;78.84
64602;BME280;68371;42.630;23.192;2023-03-14T02:42:02;92349.84;;;-0.54;78.68
64602;BME280;68371;42.630;23.192;2023-03-14T02:44:30;92348.34;;;-0.61;78.71
64602;BME280;68371;42.630;23.192;2023-03-14T02:47:00;92352.25;;;-0.68;78.67
64602;BME280;68371;42.630;23.192;2023-03-14T02:49:29;92352.75;;;-0.71;79.57
64602;BME280;68371;42.630;23.192;2023-03-14T02:51:57;92355.91;;;-0.79;80.03
64602;BME280;68371;42.630;23.192;2023-03-14T02:54:25;92350.69;;;-0.69;80.21
64602;BME280;68371;42.630;23.192;2023-03-14T02:56:52;92355.59;;;-0.68;79.63
64602;BME280;68371;42.630;23.192;2023-03-14T02:59:19;92355.06;;;-0.70;79.20
64602;BME280;68371;42.630;23.192;2023-03-14T03:01:47;92354.63;;;-0.77;79.78
64602;BME280;68371;42.630;23.192;2023-03-14T03:04:13;92354.81;;;-0.68;79.90
64602;BME280;68371;42.630;23.192;2023-03-14T03:06:40;92354.31;;;-0.70;80.14
64602;BME280;68371;42.630;23.192;2023-03-14T03:09:07;92352.53;;;-0.75;80.37
64602;BME280;68371;42.630;23.192;2023-03-14T03:11:34;92345.81;;;-0.76;79.88
64602;BME280;68371;42.630;23.192;2023-03-14T03:14:01;92345.31;;;-0.78;80.12
64602;BME280;68371;42.630;23.192;2023-03-14T03:16:28;92287.75;;;-1.18;79.97
64602;BME280;68371;42.630;23.192;2023-03-14T03:18:58;92339.66;;;-0.80;79.81
64602;BME280;68371;42.630;23.192;2023-03-14T03:21:27;92343.50;;;-0.77;80.45
64602;BME280;68371;42.630;23.192;2023-03-14T03:23:54;92339.66;;;-0.80;80.66
64602;BME280;68371;42.630;23.192;2023-03-14T03:26:20;92335.75;;;-0.77;80.00
64602;BME280;68371;42.630;23.192;2023-03-14T03:28:50;92327.06;;;-0.87;80.44
64602;BME280;68371;42.630;23.192;2023-03-14T03:31:17;92338.63;;;-0.79;80.69
64602;BME280;68371;42.630;23.192;2023-03-14T03:33:44;92337.06;;;-0.80;80.54
64602;BME280;68371;42.630;23.192;2023-03-14T03:36:12;92335.50;;;-0.76;80.75
64602;BME280;68371;42.630;23.192;2023-03-14T03:38:38;92340.16;;;-0.78;80.54
64602;BME280;68371;42.630;23.192;2023-03-14T03:41:06;92305.22;;;-1.05;80.43
64602;BME280;68371;42.630;23.192;2023-03-14T03:43:33;92342.50;;;-0.82;80.51
64602;BME280;68371;42.630;23.192;2023-03-14T03:46:03;92346.13;;;-0.83;80.77
64602;BME280;68371;42.630;23.192;2023-03-14T03:48:29;92346.38;;;-0.79;80.85
64602;BME280;68371;42.630;23.192;2023-03-14T03:50:58;92353.66;;;-0.96;80.45
64602;BME280;68371;42.630;23.192;2023-03-14T03:53:26;92350.31;;;-0.97;80.81
64602;BME280;68371;42.630;23.192;2023-03-14T03:55:53;92354.94;;;-0.94;81.58
64602;BME280;68371;42.630;23.192;2023-03-14T03:58:19;92348.50;;;-1.02;80.72
64602;BME280;68371;42.630;23.192;2023-03-14T04:00:46;92349.31;;;-1.01;80.32
64602;BME280;68371;42.630;23.192;2023-03-14T04:03:13;92344.16;;;-1.01;80.85
64602;BME280;68371;42.630;23.192;2023-03-14T04:05:40;92348.00;;;-1.04;81.49
64602;BME280;68371;42.630;23.192;2023-03-14T04:08:06;92343.34;;;-1.02;81.46
64602;BME280;68371;42.630;23.192;2023-03-14T04:10:35;92351.63;;;-1.10;81.80
64602;BME280;68371;42.630;23.192;2023-03-14T04:13:04;92341.81;;;-1.03;81.64
64602;BME280;68371;42.630;23.192;2023-03-14T04:15:30;92336.91;;;-0.99;81.84
64602;BME280;68371;42.630;23.192;2023-03-14T04:17:58;92332.00;;;-1.01;81.98
64602;BME280;68371;42.630;23.192;2023-03-14T04:20:25;92327.41;;;-1.09;81.93
64602;BME280;68371;42.630;23.192;2023-03-14T04:22:52;92327.91;;;-1.07;82.03
64602;BME280;68371;42.630;23.192;2023-03-14T04:25:19;92317.91;;;-1.13;82.39
64602;BME280;68371;42.630;23.192;2023-03-14T04:27:47;92318.63;;;-1.08;82.24
64602;BME280;68371;42.630;23.192;2023-03-14T04:30:14;92316.28;;;-1.04;82.09
64602;BME280;68371;42.630;23.192;2023-03-14T04:32:41;92307.25;;;-1.02;81.98
64602;BME280;68371;42.630;23.192;2023-03-14T04:35:08;92310.13;;;-1.03;82.40
64602;BME280;68371;42.630;23.192;2023-03-14T04:37:35;92310.88;;;-1.03;82.29
64602;BME280;68371;42.630;23.192;2023-03-14T04:40:04;92268.47;;;-1.26;82.39
64602;BME280;68371;42.630;23.192;2023-03-14T04:45:56;92300.63;;;-1.13;81.22
64602;BME280;68371;42.630;23.192;2023-03-14T04:48:24;92289.78;;;-1.15;81.87
64602;BME280;68371;42.630;23.192;2023-03-14T04:50:51;92294.44;;;-1.17;82.39
64602;BME280;68371;42.630;23.192;2023-03-14T04:53:19;92289.78;;;-1.15;82.03
64602;BME280;68371;42.630;23.192;2023-03-14T04:55:47;92287.22;;;-1.20;82.74
64602;BME280;68371;42.630;23.192;2023-03-14T04:58:14;92286.66;;;-1.07;82.87
64602;BME280;68371;42.630;23.192;2023-03-14T05:00:41;92286.66;;;-1.07;82.61
64602;BME280;68371;42.630;23.192;2023-03-14T05:03:09;92288.97;;;-1.05;82.56
64602;BME280;68371;42.630;23.192;2023-03-14T05:05:36;92288.47;;;-1.07;82.49
64602;BME280;68371;42.630;23.192;2023-03-14T05:08:06;92283.06;;;-1.11;82.33
64602;BME280;68371;42.630;23.192;2023-03-14T05:10:36;92281.53;;;-1.12;82.37
64602;BME280;68371;42.630;23.192;2023-03-14T05:13:02;92281.75;;;-1.03;82.52
64602;BME280;68371;42.630;23.192;2023-03-14T05:15:31;92284.34;;;-1.08;82.29
64602;BME280;68371;42.630;23.192;2023-03-14T05:17:57;92286.91;;;-1.08;82.58
64602;BME280;68371;42.630;23.192;2023-03-14T05:20:25;92275.91;;;-1.24;82.83
64602;BME280;68371;42.630;23.192;2023-03-14T05:22:52;92279.94;;;-1.08;83.24
64602;BME280;68371;42.630;23.192;2023-03-14T05:25:19;92278.63;;;-1.00;82.53
64602;BME280;68371;42.630;23.192;2023-03-14T05:27:46;92286.88;;;-0.98;82.84
64602;BME280;68371;42.630;23.192;2023-03-14T05:30:13;92284.53;;;-0.99;82.37
64602;BME280;68371;42.630;23.192;2023-03-14T05:32:40;92279.91;;;-0.97;82.86
64602;BME280;68371;42.630;23.192;2023-03-14T05:35:07;92277.81;;;-0.95;83.46
64602;BME280;68371;42.630;23.192;2023-03-14T05:37:36;92274.97;;;-0.89;83.87
64602;BME280;68371;42.630;23.192;2023-03-14T05:40:04;92282.41;;;-0.82;83.20
64602;BME280;68371;42.630;23.192;2023-03-14T05:42:34;92284.97;;;-0.77;83.87
64602;BME280;68371;42.630;23.192;2023-03-14T05:45:02;92274.91;;;-0.78;83.93
64602;BME280;68371;42.630;23.192;2023-03-14T05:47:28;92279.00;;;-0.72;83.65
64602;BME280;68371;42.630;23.192;2023-03-14T05:49:55;92245.09;;;-0.95;84.17
64602;BME280;68371;42.630;23.192;2023-03-14T05:52:22;92274.53;;;-0.62;84.58
64602;BME280;68371;42.630;23.192;2023-03-14T05:54:50;92228.81;;;-0.90;83.95
64602;BME280;68371;42.630;23.192;2023-03-14T05:57:16;92281.44;;;-0.52;84.17
64602;BME280;68371;42.630;23.192;2023-03-14T05:59:43;92279.84;;;-0.43;84.77
64602;BME280;68371;42.630;23.192;2023-03-14T06:02:10;92283.41;;;-0.38;85.12
64602;BME280;68371;42.630;23.192;2023-03-14T06:04:37;92287.50;;;-0.32;85.25
64602;BME280;68371;42.630;23.192;2023-03-14T06:07:03;92256.53;;;-0.37;85.14
64602;BME280;68371;42.630;23.192;2023-03-14T06:09:32;92255.19;;;-0.30;84.19
64602;BME280;68371;42.630;23.192;2023-03-14T06:12:00;92269.34;;;-0.22;84.94
64602;BME280;68371;42.630;23.192;2023-03-14T06:14:27;92267.44;;;-0.11;85.23
64602;BME280;68371;42.630;23.192;2023-03-14T06:16:53;92233.06;;;-0.36;84.63
64602;BME280;68371;42.630;23.192;2023-03-14T06:19:20;92265.53;;;-0.01;85.21
64602;BME280;68371;42.630;23.192;2023-03-14T06:21:47;92263.91;;;0.09;84.79
64602;BME280;68371;42.630;23.192;2023-03-14T06:24:13;92269.72;;;0.19;83.54
64602;BME280;68371;42.630;23.192;2023-03-14T06:26:40;92275.63;;;0.25;83.18
64602;BME280;68371;42.630;23.192;2023-03-14T06:29:09;92279.25;;;0.48;86.79
64602;BME280;68371;42.630;23.192;2023-03-14T06:31:38;92281.78;;;0.77;84.07
64602;BME280;68371;42.630;23.192;2023-03-14T06:34:05;92274.31;;;0.95;81.33
64602;BME280;68371;42.630;23.192;2023-03-14T06:36:31;92272.72;;;0.99;81.53
64602;BME280;68371;42.630;23.192;2023-03-14T06:38:58;92281.63;;;1.12;80.46
64602;BME280;68371;42.630;23.192;2023-03-14T06:41:28;92217.31;;;0.81;78.82
64602;BME280;68371;42.630;23.192;2023-03-14T06:43:54;92275.72;;;1.25;77.16
64602;BME280;68371;42.630;23.192;2023-03-14T06:46:22;92266.63;;;1.28;75.51
64602;BME280;68371;42.630;23.192;2023-03-14T06:48:49;92261.41;;;1.33;74.94
64602;BME280;68371;42.630;23.192;2023-03-14T06:51:16;92253.13;;;1.50;72.65
64602;BME280;68371;42.630;23.192;2023-03-14T06:53:43;92251.44;;;1.59;72.94
64602;BME280;68371;42.630;23.192;2023-03-14T06:56:10;92243.78;;;1.68;73.63
64602;BME280;68371;42.630;23.192;2023-03-14T06:58:36;92241.41;;;1.71;73.50
64602;BME280;68371;42.630;23.192;2023-03-14T07:01:05;92179.59;;;1.51;72.55
64602;BME280;68371;42.630;23.192;2023-03-14T07:03:33;92217.75;;;1.92;72.34
64602;BME280;68371;42.630;23.192;2023-03-14T07:06:00;92239.97;;;2.12;71.58
64602;BME280;68371;42.630;23.192;2023-03-14T07:08:27;92235.75;;;2.16;70.57
64602;BME280;68371;42.630;23.192;2023-03-14T07:10:55;92238.44;;;2.25;69.26
64602;BME280;68371;42.630;23.192;2023-03-14T07:13:22;92243.34;;;2.40;68.54
64602;BME280;68371;42.630;23.192;2023-03-14T07:15:49;92238.53;;;2.47;69.80
64602;BME280;68371;42.630;23.192;2023-03-14T07:18:15;92209.44;;;2.36;68.84
64602;BME280;68371;42.630;23.192;2023-03-14T07:20:46;92204.94;;;2.42;68.59
64602;BME280;68371;42.630;23.192;2023-03-14T07:23:12;92232.88;;;2.59;67.85
64602;BME280;68371;42.630;23.192;2023-03-14T07:25:40;92244.19;;;2.77;67.97
64602;BME280;68371;42.630;23.192;2023-03-14T07:28:06;92240.72;;;2.81;67.57
64602;BME280;68371;42.630;23.192;2023-03-14T07:30:35;92232.94;;;2.95;67.74
64602;BME280;68371;42.630;23.192;2023-03-14T07:33:02;92224.94;;;3.06;67.33
64602;BME280;68371;42.630;23.192;2023-03-14T07:35:29;92218.03;;;3.01;67.81
64602;BME280;68371;42.630;23.192;2023-03-14T07:37:57;92222.28;;;3.19;66.45
64602;BME280;68371;42.630;23.192;2023-03-14T07:40:23;92207.97;;;3.22;66.61
64602;BME280;68371;42.630;23.192;2023-03-14T07:42:50;92217.72;;;3.39;66.07
64602;BME280;68371;42.630;23.192;2023-03-14T07:45:20;92218.06;;;3.46;66.01
64602;BME280;68371;42.630;23.192;2023-03-14T07:47:47;92213.09;;;3.58;66.12
64602;BME280;68371;42.630;23.192;2023-03-14T07:50:14;92211.81;;;3.70;67.05
64602;BME280;68371;42.630;23.192;2023-03-14T07:52:40;92213.44;;;3.88;65.27
64602;BME280;68371;42.630;23.192;2023-03-14T07:55:11;92194.63;;;3.83;64.24
64602;BME280;68371;42.630;23.192;2023-03-14T07:57:40;92217.34;;;3.99;64.50
64602;BME280;68371;42.630;23.192;2023-03-14T08:00:09;92192.19;;;3.86;65.56
64602;BME280;68371;42.630;23.192;2023-03-14T08:02:36;92180.13;;;3.90;64.02
64602;BME280;68371;42.630;23.192;2023-03-14T08:05:04;92172.81;;;3.92;64.72
64602;BME280;68371;42.630;23.192;2023-03-14T08:07:30;92134.66;;;3.79;62.53
64602;BME280;68371;42.630;23.192;2023-03-14T08:09:57;92215.19;;;4.33;63.93
64602;BME280;68371;42.630;23.192;2023-03-14T08:12:25;92206.81;;;4.45;64.90
64602;BME280;68371;42.630;23.192;2023-03-14T08:14:52;92214.66;;;4.53;62.91
64602;BME280;68371;42.630;23.192;2023-03-14T08:17:19;92202.75;;;4.70;62.43
64602;BME280;68371;42.630;23.192;2023-03-14T08:19:45;92208.28;;;4.77;61.93
64602;BME280;68371;42.630;23.192;2023-03-14T08:22:12;92207.09;;;4.83;60.44
64602;BME280;68371;42.630;23.192;2023-03-14T08:24:40;92211.09;;;4.98;60.05
64602;BME280;68371;42.630;23.192;2023-03-14T08:27:07;92201.59;;;5.02;60.33
64602;BME280;68371;42.630;23.192;2023-03-14T08:29:37;92172.16;;;4.84;58.78
64602;BME280;68371;42.630;23.192;2023-03-14T08:32:06;92209.88;;;5.21;59.64
64602;BME280;68371;42.630;23.192;2023-03-14T08:34:33;92206.97;;;5.32;59.45
64602;BME280;68371;42.630;23.192;2023-03-14T08:37:00;92204.06;;;5.42;58.90
64602;BME280;68371;42.630;23.192;2023-03-14T08:39:27;92200.69;;;5.50;58.91
64602;BME280;68371;42.630;23.192;2023-03-14T08:41:53;92200.22;;;5.57;58.66
64602;BME280;68371;42.630;23.192;2023-03-14T08:44:20;92191.19;;;5.72;57.59
64602;BME280;68371;42.630;23.192;2023-03-14T08:46:48;92196.22;;;5.77;56.09
64602;BME280;68371;42.630;23.192;2023-03-14T08:49:15;92191.88;;;5.90;56.55
64602;BME280;68371;42.630;23.192;2023-03-14T08:51:42;92185.16;;;5.97;55.94
64602;BME280;68371;42.630;23.192;2023-03-14T08:54:10;92183.59;;;6.05;55.80
64602;BME280;68371;42.630;23.192;2023-03-14T08:56:37;92180.66;;;6.15;55.07
64602;BME280;68371;42.630;23.192;2023-03-14T08:59:05;92173.75;;;6.19;56.31
64602;BME280;68371;42.630;23.192;2023-03-14T09:01:33;92165.72;;;6.33;56.32
64602;BME280;68371;42.630;23.192;2023-03-14T09:04:01;92160.28;;;6.47;54.92
64602;BME280;68371;42.630;23.192;2023-03-14T09:06:28;92149.16;;;6.59;54.57
64602;BME280;68371;42.630;23.192;2023-03-14T09:08:55;92124.28;;;6.61;55.07
64602;BME280;68371;42.630;23.192;2023-03-14T09:11:21;92142.84;;;6.90;54.25
64602;BME280;68371;42.630;23.192;2023-03-14T09:13:48;92139.19;;;7.03;54.68
64602;BME280;68371;42.630;23.192;2023-03-14T09:16:15;92132.06;;;7.12;53.55
64602;BME280;68371;42.630;23.192;2023-03-14T09:18:42;92127.22;;;7.23;52.93
64602;BME280;68371;42.630;23.192;2023-03-14T09:21:12;92120.31;;;7.39;52.33
64602;BME280;68371;42.630;23.192;2023-03-14T09:23:42;92124.19;;;7.54;52.02
64602;BME280;68371;42.630;23.192;2023-03-14T09:26:10;92114.66;;;7.71;52.12
64602;BME280;68371;42.630;23.192;2023-03-14T09:28:37;92112.06;;;7.83;50.81
64602;BME280;68371;42.630;23.192;2023-03-14T09:31:06;92083.59;;;7.69;50.97
64602;BME280;68371;42.630;23.192;2023-03-14T09:33:35;92108.03;;;7.98;50.09
64602;BME280;68371;42.630;23.192;2023-03-14T09:36:03;92107.16;;;8.06;49.42
64602;BME280;68371;42.630;23.192;2023-03-14T09:38:32;92064.44;;;7.77;50.08
64602;BME280;68371;42.630;23.192;2023-03-14T09:41:00;92067.50;;;7.92;49.06
64602;BME280;68371;42.630;23.192;2023-03-14T09:43:30;92102.06;;;8.22;49.18
64602;BME280;68371;42.630;23.192;2023-03-14T09:46:00;92095.63;;;8.32;48.93
64602;BME280;68371;42.630;23.192;2023-03-14T09:48:31;92085.19;;;8.44;47.75
64602;BME280;68371;42.630;23.192;2023-03-14T09:51:01;92072.50;;;8.58;48.00
64602;BME280;68371;42.630;23.192;2023-03-14T09:53:37;92045.03;;;8.52;48.34
64602;BME280;68371;42.630;23.192;2023-03-14T09:56:12;92061.47;;;8.65;47.22
64602;BME280;68371;42.630;23.192;2023-03-14T09:58:42;92069.47;;;8.97;47.20
64602;BME280;68371;42.630;23.192;2023-03-14T10:01:14;92072.81;;;9.10;47.20
64602;BME280;68371;42.630;23.192;2023-03-14T10:03:44;92071.78;;;9.27;46.52
64602;BME280;68371;42.630;23.192;2023-03-14T10:06:12;92066.13;;;9.40;45.10
64602;BME280;68371;42.630;23.192;2023-03-14T10:08:43;92061.25;;;9.55;45.98
64602;BME280;68371;42.630;23.192;2023-03-14T10:11:15;92030.13;;;9.37;43.90
64602;BME280;68371;42.630;23.192;2023-03-14T10:13:52;92006.25;;;9.42;43.76
64602;BME280;68371;42.630;23.192;2023-03-14T10:16:29;91970.00;;;9.29;44.86
64602;BME280;68371;42.630;23.192;2023-03-14T10:19:01;92039.13;;;10.00;43.49
64602;BME280;68371;42.630;23.192;2023-03-14T10:21:29;92028.03;;;10.07;43.54
64602;BME280;68371;42.630;23.192;2023-03-14T10:26:53;92022.91;;;10.46;42.85
64602;BME280;68371;42.630;23.192;2023-03-14T10:29:21;91990.72;;;10.49;43.35
64602;BME280;68371;42.630;23.192;2023-03-14T10:31:52;92008.94;;;10.77;40.89
64602;BME280;68371;42.630;23.192;2023-03-14T10:34:24;91998.81;;;10.98;45.14
64602;BME280;68371;42.630;23.192;2023-03-14T10:36:56;91830.44;;;10.06;42.05
64602;BME280;68371;42.630;23.192;2023-03-14T10:39:38;91910.53;;;10.74;40.68
64602;BME280;68371;42.630;23.192;2023-03-14T10:42:16;91953.56;;;11.28;41.42
64602;BME280;68371;42.630;23.192;2023-03-14T10:44:44;91908.91;;;11.09;40.47
64602;BME280;68371;42.630;23.192;2023-03-14T10:47:18;91859.84;;;10.93;40.76
64602;BME280;68371;42.630;23.192;2023-03-14T10:49:46;91956.66;;;11.57;40.22
64602;BME280;68371;42.630;23.192;2023-03-14T10:52:18;91912.88;;;11.22;41.49
64602;BME280;68371;42.630;23.192;2023-03-14T10:54:54;91876.34;;;11.17;40.07
64602;BME280;68371;42.630;23.192;2023-03-14T10:57:21;91958.22;;;11.85;40.94
64602;BME280;68371;42.630;23.192;2023-03-14T10:59:48;91902.78;;;11.74;41.05
64602;BME280;68371;42.630;23.192;2023-03-14T11:02:32;91940.69;;;12.19;39.23
64602;BME280;68371;42.630;23.192;2023-03-14T11:05:11;91882.75;;;11.66;38.31
64602;BME280;68371;42.630;23.192;2023-03-14T11:07:42;91931.47;;;12.06;38.62
64602;BME280;68371;42.630;23.192;2023-03-14T11:10:18;91871.19;;;11.70;39.05
64602;BME280;68371;42.630;23.192;2023-03-14T11:12:53;91925.75;;;12.27;40.46
64602;BME280;68371;42.630;23.192;2023-03-14T11:15:32;91908.38;;;12.52;37.29
64602;BME280;68371;42.630;23.192;2023-03-14T11:18:34;91910.56;;;12.47;38.54
64602;BME280;68371;42.630;23.192;2023-03-14T11:21:06;91909.75;;;12.73;39.34
64602;BME280;68371;42.630;23.192;2023-03-14T11:23:42;91819.75;;;12.33;39.44
64602;BME280;68371;42.630;23.192;2023-03-14T11:26:23;91895.31;;;12.97;36.68
64602;BME280;68371;42.630;23.192;2023-03-14T11:28:57;91876.56;;;13.06;37.73
64602;BME280;68371;42.630;23.192;2023-03-14T11:31:26;91895.38;;;13.41;36.98
64602;BME280;68371;42.630;23.192;2023-03-14T11:33:56;91877.44;;;13.61;38.82
64602;BME280;68371;42.630;23.192;2023-03-14T11:36:31;91870.00;;;13.78;37.12
64602;BME280;68371;42.630;23.192;2023-03-14T11:38:59;91868.22;;;13.93;35.06
64602;BME280;68371;42.630;23.192;2023-03-14T11:41:31;91861.16;;;14.11;34.83
64602;BME280;68371;42.630;23.192;2023-03-14T11:44:02;91858.56;;;14.22;32.66
64602;BME280;68371;42.630;23.192;2023-03-14T11:46:33;91848.50;;;14.49;31.92
64602;BME280;68371;42.630;23.192;2023-03-14T11:49:04;91808.06;;;14.38;29.72
64602;BME280;68371;42.630;23.192;2023-03-14T11:51:35;91849.72;;;14.70;27.55
64602;BME280;68371;42.630;23.192;2023-03-14T11:54:12;91843.69;;;14.80;27.55
64602;BME280;68371;42.630;23.192;2023-03-14T11:56:47;91854.31;;;14.98;30.30
64602;BME280;68371;42.630;23.192;2023-03-14T11:59:18;91839.97;;;14.95;26.56
64602;BME280;68371;42.630;23.192;2023-03-14T12:01:53;91822.56;;;14.87;27.27
64602;BME280;68371;42.630;23.192;2023-03-14T12:04:41;91817.31;;;15.12;29.41
64602;BME280;68371;42.630;23.192;2023-03-14T12:07:14;91818.44;;;15.22;26.41
64602;BME280;68371;42.630;23.192;2023-03-14T12:09:44;91825.25;;;15.27;26.29
64602;BME280;68371;42.630;23.192;2023-03-14T12:12:17;91811.28;;;15.51;29.02
64602;BME280;68371;42.630;23.192;2023-03-14T12:14:46;91810.47;;;15.94;29.30
64602;BME280;68371;42.630;23.192;2023-03-14T12:17:20;91804.44;;;15.86;26.47
64602;BME280;68371;42.630;23.192;2023-03-14T12:19:47;91801.03;;;15.78;25.94
64602;BME280;68371;42.630;23.192;2023-03-14T12:22:23;91795.75;;;15.75;25.08
64602;BME280;68371;42.630;23.192;2023-03-14T12:24:53;91788.94;;;15.63;25.15
64602;BME280;68371;42.630;23.192;2023-03-14T12:30:44;91786.72;;;15.29;26.18
64602;BME280;68371;42.630;23.192;2023-03-14T12:33:31;91767.78;;;15.59;28.71
64602;BME280;68371;42.630;23.192;2023-03-14T12:39:05;91774.09;;;16.12;26.45
64602;BME280;68371;42.630;23.192;2023-03-14T12:41:42;91760.84;;;16.09;25.91
64602;BME280;68371;42.630;23.192;2023-03-14T12:44:45;91766.34;;;16.50;25.91
64602;BME280;68371;42.630;23.192;2023-03-14T12:50:33;91750.63;;;17.37;25.79
64602;BME280;68371;42.630;23.192;2023-03-14T12:56:28;91720.69;;;17.74;24.84
64602;BME280;68371;42.630;23.192;2023-03-14T13:01:47;91724.78;;;18.48;23.73
64602;BME280;68371;42.630;23.192;2023-03-14T13:04:26;91727.59;;;18.64;23.16
64602;BME280;68371;42.630;23.192;2023-03-14T13:06:56;91723.94;;;18.81;23.79
64602;BME280;68371;42.630;23.192;2023-03-14T13:43:15;91639.81;;;18.37;21.46
64602;BME280;68371;42.630;23.192;2023-03-14T13:45:44;91663.91;;;18.80;23.03
64602;BME280;68371;42.630;23.192;2023-03-14T13:48:13;91654.31;;;18.87;22.03
64602;BME280;68371;42.630;23.192;2023-03-14T13:50:54;91614.56;;;18.49;22.44
64602;BME280;68371;42.630;23.192;2023-03-14T13:53:22;91639.63;;;18.75;21.91
64602;BME280;68371;42.630;23.192;2023-03-14T13:55:49;91642.28;;;18.51;21.72
64602;BME280;68371;42.630;23.192;2023-03-14T13:58:24;91637.22;;;18.33;21.63
64602;BME280;68371;42.630;23.192;2023-03-14T14:01:13;91597.22;;;18.17;22.33